createdAt,value
2019-02-12T00:00:24.803Z,957.60
2019-02-12T00:01:24.791Z,957.57
2019-02-12T00:02:45.779Z,957.55
2019-02-12T00:03:24.766Z,957.53
2019-02-12T00:04:24.787Z,957.44
2019-02-12T00:05:24.765Z,957.47
2019-02-12T00:06:24.747Z,957.48
2019-02-12T00:07:24.727Z,957.50
2019-02-12T00:08:45.714Z,957.47
2019-02-12T00:09:24.702Z,957.48
2019-02-12T00:10:24.694Z,957.47
2019-02-12T00:11:24.706Z,957.47
2019-02-12T00:12:24.669Z,957.51
2019-02-12T00:13:24.664Z,957.54
2019-02-12T00:14:45.681Z,957.58
2019-02-12T00:15:24.641Z,957.58
2019-02-12T00:16:24.630Z,957.60
2019-02-12T00:17:24.626Z,957.62
2019-02-12T00:18:24.609Z,957.65
2019-02-12T00:19:24.594Z,957.70
2019-02-12T00:20:45.594Z,957.71
2019-02-12T00:21:24.575Z,957.73
2019-02-12T00:22:24.569Z,957.77
2019-02-12T00:23:24.552Z,957.73
2019-02-12T00:24:24.543Z,957.77
2019-02-12T00:25:24.530Z,957.82
2019-02-12T00:26:45.527Z,957.81
2019-02-12T00:27:24.514Z,957.81
2019-02-12T00:28:24.507Z,957.85
2019-02-12T00:29:24.493Z,957.83
2019-02-12T00:30:24.481Z,957.84
2019-02-12T00:31:24.471Z,957.86
2019-02-12T00:32:45.465Z,957.85
2019-02-12T00:33:24.452Z,957.94
2019-02-12T00:34:24.439Z,957.93
2019-02-12T00:35:24.427Z,957.96
2019-02-12T00:36:24.415Z,958.02
2019-02-12T00:37:24.418Z,958.03
2019-02-12T00:38:45.406Z,958.01
2019-02-12T00:39:24.388Z,957.95
2019-02-12T00:40:24.376Z,957.98
2019-02-12T00:41:24.368Z,957.97
2019-02-12T00:42:24.356Z,957.98
2019-02-12T00:43:24.347Z,957.99
2019-02-12T00:44:45.352Z,958.08
2019-02-12T00:45:24.328Z,958.07
2019-02-12T00:46:24.316Z,958.07
2019-02-12T00:47:24.304Z,958.05
2019-02-12T00:48:24.290Z,958.07
2019-02-12T00:49:24.285Z,958.08
2019-02-12T00:50:45.278Z,958.12
2019-02-12T00:51:24.263Z,958.11
2019-02-12T00:52:24.251Z,958.13
2019-02-12T00:53:24.246Z,958.17
2019-02-12T00:54:24.336Z,958.16
2019-02-12T00:55:24.214Z,958.19
2019-02-12T00:56:45.223Z,958.21
2019-02-12T00:57:24.205Z,958.27
2019-02-12T00:58:24.190Z,958.21
2019-02-12T00:59:24.173Z,958.23
2019-02-12T01:00:24.169Z,958.27
2019-02-12T01:01:24.156Z,958.24
2019-02-12T01:02:45.153Z,958.23
2019-02-12T01:03:24.147Z,958.24
2019-02-12T01:04:24.122Z,958.23
2019-02-12T01:05:24.108Z,958.22
2019-02-12T01:06:24.103Z,958.19
2019-02-12T01:07:24.096Z,958.21
2019-02-12T01:08:45.086Z,958.25
2019-02-12T01:09:24.070Z,958.25
2019-02-12T01:10:24.058Z,958.27
2019-02-12T01:11:24.046Z,958.27
2019-02-12T01:12:24.046Z,958.24
2019-02-12T01:13:24.026Z,958.22
2019-02-12T01:14:45.025Z,958.28
2019-02-12T01:15:24.001Z,958.31
2019-02-12T01:16:23.993Z,958.31
2019-02-12T01:17:23.982Z,958.32
2019-02-12T01:18:23.979Z,958.38
2019-02-12T01:19:24.022Z,958.40
2019-02-12T01:20:44.952Z,958.45
2019-02-12T01:21:26.315Z,958.46
2019-02-12T01:22:23.927Z,958.51
2019-02-12T01:23:23.912Z,958.50
2019-02-12T01:24:23.907Z,958.56
2019-02-12T01:25:23.892Z,958.50
2019-02-12T01:26:44.892Z,958.59
2019-02-12T01:27:23.871Z,958.56
2019-02-12T01:28:23.867Z,958.58
2019-02-12T01:29:23.844Z,958.61
2019-02-12T01:30:23.833Z,958.64
2019-02-12T01:31:23.842Z,958.66
2019-02-12T01:32:44.832Z,958.71
2019-02-12T01:33:23.811Z,958.66
2019-02-12T01:34:23.791Z,958.63
2019-02-12T01:35:23.787Z,958.61
2019-02-12T01:36:23.776Z,958.57
2019-02-12T01:37:24.020Z,958.57
2019-02-12T01:38:44.755Z,958.55
2019-02-12T01:39:23.748Z,958.54
2019-02-12T01:40:23.729Z,958.55
2019-02-12T01:41:23.726Z,958.57
2019-02-12T01:42:23.711Z,958.61
2019-02-12T01:43:23.697Z,958.65
2019-02-12T01:44:44.694Z,958.65
2019-02-12T01:45:23.677Z,958.65
2019-02-12T01:46:23.670Z,958.65
2019-02-12T01:47:23.656Z,958.66
2019-02-12T01:48:23.648Z,958.65
2019-02-12T01:49:23.633Z,958.63
2019-02-12T01:50:44.630Z,958.62
2019-02-12T01:51:23.608Z,958.66
2019-02-12T01:52:23.594Z,958.68
2019-02-12T01:53:23.584Z,958.68
2019-02-12T01:54:23.570Z,958.71
2019-02-12T01:55:23.559Z,958.74
2019-02-12T01:56:44.559Z,958.73
2019-02-12T01:57:23.539Z,958.71
2019-02-12T01:58:23.531Z,958.71
2019-02-12T01:59:23.523Z,958.72
2019-02-12T02:00:23.506Z,958.73
2019-02-12T02:01:23.497Z,958.71
2019-02-12T02:02:44.487Z,958.78
2019-02-12T02:03:23.477Z,958.82
2019-02-12T02:04:23.461Z,958.86
2019-02-12T02:05:23.452Z,958.83
2019-02-12T02:06:23.445Z,958.86
2019-02-12T02:07:23.432Z,958.87
2019-02-12T02:08:44.424Z,958.83
2019-02-12T02:09:23.400Z,958.84
2019-02-12T02:10:23.392Z,958.85
2019-02-12T02:11:23.380Z,958.84
2019-02-12T02:12:23.377Z,958.86
2019-02-12T02:13:23.362Z,958.89
2019-02-12T02:14:44.365Z,958.87
2019-02-12T02:15:23.336Z,958.87
2019-02-12T02:16:23.326Z,958.87
2019-02-12T02:17:23.309Z,958.91
2019-02-12T02:18:23.315Z,958.94
2019-02-12T02:19:23.293Z,958.88
2019-02-12T02:20:44.287Z,958.90
2019-02-12T02:21:23.267Z,958.97
2019-02-12T02:22:23.259Z,958.97
2019-02-12T02:23:23.245Z,958.96
2019-02-12T02:24:23.230Z,958.93
2019-02-12T02:25:23.235Z,958.92
2019-02-12T02:26:44.221Z,958.96
2019-02-12T02:27:23.502Z,958.93
2019-02-12T02:28:23.189Z,959.02
2019-02-12T02:29:23.182Z,959.00
2019-02-12T02:30:23.160Z,959.01
2019-02-12T02:31:23.180Z,959.03
2019-02-12T02:32:44.150Z,959.00
2019-02-12T02:33:23.171Z,959.03
2019-02-12T02:34:23.121Z,958.98
2019-02-12T02:35:23.114Z,958.98
2019-02-12T02:36:23.111Z,958.95
2019-02-12T02:37:23.082Z,958.96
2019-02-12T02:38:44.083Z,958.90
2019-02-12T02:39:23.068Z,958.87
2019-02-12T02:40:23.054Z,958.83
2019-02-12T02:41:23.042Z,958.86
2019-02-12T02:42:23.035Z,958.89
2019-02-12T02:43:23.018Z,958.91
2019-02-12T02:44:44.014Z,958.94
2019-02-12T02:45:22.997Z,958.97
2019-02-12T02:46:22.980Z,959.03
2019-02-12T02:47:22.965Z,959.01
2019-02-12T02:48:22.960Z,959.01
2019-02-12T02:49:22.951Z,959.01
2019-02-12T02:50:43.942Z,959.01
2019-02-12T02:51:22.947Z,958.98
2019-02-12T02:52:22.914Z,958.99
2019-02-12T02:53:22.905Z,958.93
2019-02-12T02:54:22.892Z,958.96
2019-02-12T02:55:22.891Z,958.91
2019-02-12T02:56:43.869Z,958.91
2019-02-12T02:57:22.863Z,958.95
2019-02-12T02:58:22.847Z,958.91
2019-02-12T02:59:22.832Z,958.97
2019-02-12T03:00:22.822Z,958.98
2019-02-12T03:01:22.807Z,958.99
2019-02-12T03:02:43.812Z,959.01
2019-02-12T03:03:22.789Z,958.98
2019-02-12T03:04:22.774Z,958.94
2019-02-12T03:05:22.761Z,958.96
2019-02-12T03:06:22.757Z,958.93
2019-02-12T03:07:22.736Z,958.98
2019-02-12T03:08:43.837Z,958.94
2019-02-12T03:09:22.725Z,958.97
2019-02-12T03:10:22.706Z,959.02
2019-02-12T03:11:22.698Z,958.97
2019-02-12T03:12:22.681Z,958.98
2019-02-12T03:13:22.673Z,958.96
2019-02-12T03:14:43.660Z,958.94
2019-02-12T03:15:22.642Z,958.98
2019-02-12T03:16:22.631Z,958.99
2019-02-12T03:17:22.641Z,959.01
2019-02-12T03:18:22.619Z,959.00
2019-02-12T03:19:22.649Z,959.00
2019-02-12T03:20:43.601Z,958.97
2019-02-12T03:21:22.575Z,958.98
2019-02-12T03:22:22.568Z,959.00
2019-02-12T03:23:22.558Z,959.00
2019-02-12T03:24:22.540Z,959.04
2019-02-12T03:25:22.544Z,958.97
2019-02-12T03:26:43.518Z,959.02
2019-02-12T03:27:22.512Z,958.99
2019-02-12T03:28:22.502Z,959.04
2019-02-12T03:29:22.489Z,959.08
2019-02-12T03:30:22.477Z,959.07
2019-02-12T03:31:22.469Z,959.06
2019-02-12T03:32:43.458Z,959.09
2019-02-12T03:33:22.461Z,959.07
2019-02-12T03:34:22.430Z,959.13
2019-02-12T03:35:22.428Z,959.12
2019-02-12T03:36:22.407Z,959.14
2019-02-12T03:37:22.393Z,959.16
2019-02-12T03:38:43.391Z,959.11
2019-02-12T03:39:22.375Z,959.12
2019-02-12T03:40:22.366Z,959.15
2019-02-12T03:41:22.352Z,959.16
2019-02-12T03:42:22.333Z,959.19
2019-02-12T03:43:22.331Z,959.26
2019-02-12T03:44:43.321Z,959.25
2019-02-12T03:45:22.310Z,959.29
2019-02-12T03:46:22.290Z,959.27
2019-02-12T03:47:22.281Z,959.27
2019-02-12T03:48:22.273Z,959.25
2019-02-12T03:49:22.260Z,959.34
2019-02-12T03:50:43.260Z,959.30
2019-02-12T03:51:22.238Z,959.27
2019-02-12T03:52:22.229Z,959.27
2019-02-12T03:53:22.218Z,959.26
2019-02-12T03:54:22.208Z,959.28
2019-02-12T03:55:22.198Z,959.27
2019-02-12T03:56:43.189Z,959.24
2019-02-12T03:57:22.175Z,959.26
2019-02-12T03:58:22.160Z,959.23
2019-02-12T03:59:22.150Z,959.24
2019-02-12T04:00:22.138Z,959.28
2019-02-12T04:01:22.135Z,959.26
2019-02-12T04:02:43.128Z,959.30
2019-02-12T04:03:22.108Z,959.34
2019-02-12T04:04:22.091Z,959.31
2019-02-12T04:05:22.101Z,959.37
2019-02-12T04:06:22.078Z,959.38
2019-02-12T04:07:22.061Z,959.38
2019-02-12T04:08:44.074Z,959.42
2019-02-12T04:09:22.037Z,959.40
2019-02-12T04:10:22.027Z,959.46
2019-02-12T04:11:24.291Z,959.46
2019-02-12T04:12:21.995Z,959.52
2019-02-12T04:13:21.989Z,959.54
2019-02-12T04:14:42.986Z,959.54
2019-02-12T04:15:21.976Z,959.57
2019-02-12T04:16:21.960Z,959.61
2019-02-12T04:17:21.945Z,959.59
2019-02-12T04:18:21.937Z,959.65
2019-02-12T04:19:21.929Z,959.62
2019-02-12T04:20:42.914Z,959.61
2019-02-12T04:21:21.897Z,959.68
2019-02-12T04:22:22.917Z,959.66
2019-02-12T04:23:21.884Z,959.70
2019-02-12T04:24:21.862Z,959.69
2019-02-12T04:25:21.848Z,959.74
2019-02-12T04:26:42.844Z,959.74
2019-02-12T04:27:21.829Z,959.75
2019-02-12T04:28:21.824Z,959.78
2019-02-12T04:29:21.808Z,959.77
2019-02-12T04:30:21.820Z,959.76
2019-02-12T04:31:21.787Z,959.74
2019-02-12T04:32:42.780Z,959.75
2019-02-12T04:33:21.761Z,959.76
2019-02-12T04:34:21.796Z,959.78
2019-02-12T04:35:21.746Z,959.74
2019-02-12T04:36:21.729Z,959.73
2019-02-12T04:37:21.714Z,959.75
2019-02-12T04:38:42.714Z,959.70
2019-02-12T04:39:21.693Z,959.69
2019-02-12T04:40:21.686Z,959.70
2019-02-12T04:41:21.670Z,959.70
2019-02-12T04:42:21.659Z,959.67
2019-02-12T04:43:21.658Z,959.65
2019-02-12T04:44:42.636Z,959.62
2019-02-12T04:45:21.623Z,959.57
2019-02-12T04:46:21.613Z,959.56
2019-02-12T04:47:21.602Z,959.55
2019-02-12T04:48:21.593Z,959.56
2019-02-12T04:49:21.587Z,959.58
2019-02-12T04:50:42.583Z,959.59
2019-02-12T04:51:21.561Z,959.61
2019-02-12T04:52:21.537Z,959.64
2019-02-12T04:53:21.537Z,959.58
2019-02-12T04:54:21.521Z,959.58
2019-02-12T04:55:21.515Z,959.60
2019-02-12T04:56:42.505Z,959.58
2019-02-12T04:57:21.489Z,959.59
2019-02-12T04:58:21.757Z,959.62
2019-02-12T04:59:21.462Z,959.63
2019-02-12T05:00:21.462Z,959.62
2019-02-12T05:01:21.451Z,959.66
2019-02-12T05:02:42.438Z,959.67
2019-02-12T05:03:21.430Z,959.73
2019-02-12T05:04:21.408Z,959.76
2019-02-12T05:05:21.401Z,959.76
2019-02-12T05:06:21.391Z,959.75
2019-02-12T05:07:21.391Z,959.70
2019-02-12T05:08:42.364Z,959.72
2019-02-12T05:09:21.348Z,959.71
2019-02-12T05:10:21.345Z,959.74
2019-02-12T05:11:21.327Z,959.75
2019-02-12T05:12:21.318Z,959.69
2019-02-12T05:13:21.332Z,959.64
2019-02-12T05:14:42.308Z,959.60
2019-02-12T05:15:21.287Z,959.64
2019-02-12T05:16:21.273Z,959.62
2019-02-12T05:17:21.269Z,959.67
2019-02-12T05:18:21.274Z,959.70
2019-02-12T05:19:21.247Z,959.67
2019-02-12T05:20:42.235Z,959.73
2019-02-12T05:21:21.215Z,959.76
2019-02-12T05:22:21.215Z,959.75
2019-02-12T05:23:21.247Z,959.76
2019-02-12T05:24:21.186Z,959.72
2019-02-12T05:25:21.176Z,959.71
2019-02-12T05:26:42.169Z,959.77
2019-02-12T05:27:21.151Z,959.78
2019-02-12T05:28:21.142Z,959.78
2019-02-12T05:29:21.129Z,959.76
2019-02-12T05:30:21.123Z,959.73
2019-02-12T05:31:21.101Z,959.75
2019-02-12T05:32:42.103Z,959.76
2019-02-12T05:33:21.098Z,959.75
2019-02-12T05:34:21.080Z,959.69
2019-02-12T05:35:21.079Z,959.71
2019-02-12T05:36:21.051Z,959.70
2019-02-12T05:37:21.042Z,959.74
2019-02-12T05:38:42.049Z,959.73
2019-02-12T05:39:21.021Z,959.74
2019-02-12T05:40:21.024Z,959.75
2019-02-12T05:41:21.002Z,959.77
2019-02-12T05:42:20.983Z,959.82
2019-02-12T05:43:20.981Z,959.83
2019-02-12T05:44:41.972Z,959.84
2019-02-12T05:45:20.955Z,959.86
2019-02-12T05:46:20.934Z,959.87
2019-02-12T05:47:20.925Z,959.86
2019-02-12T05:48:21.883Z,959.88
2019-02-12T05:49:23.025Z,959.90
2019-02-12T05:50:41.897Z,959.91
2019-02-12T05:51:20.882Z,959.90
2019-02-12T05:52:20.878Z,959.87
2019-02-12T05:53:20.881Z,959.85
2019-02-12T05:54:20.866Z,959.82
2019-02-12T05:55:21.678Z,959.77
2019-02-12T05:56:41.835Z,959.78
2019-02-12T05:57:20.832Z,959.76
2019-02-12T05:58:20.809Z,959.79
2019-02-12T05:59:20.791Z,959.78
2019-02-12T06:00:20.791Z,959.73
2019-02-12T06:01:20.771Z,959.71
2019-02-12T06:02:41.773Z,959.68
2019-02-12T06:03:20.790Z,959.67
2019-02-12T06:04:20.746Z,959.66
2019-02-12T06:05:20.735Z,959.64
2019-02-12T06:06:20.728Z,959.68
2019-02-12T06:07:20.708Z,959.65
2019-02-12T06:08:41.989Z,959.68
2019-02-12T06:09:20.693Z,959.70
2019-02-12T06:10:20.684Z,959.73
2019-02-12T06:11:20.669Z,959.75
2019-02-12T06:12:20.652Z,959.77
2019-02-12T06:13:20.647Z,959.76
2019-02-12T06:14:41.629Z,959.80
2019-02-12T06:15:20.620Z,959.79
2019-02-12T06:16:20.607Z,959.80
2019-02-12T06:17:20.599Z,959.78
2019-02-12T06:18:20.591Z,959.81
2019-02-12T06:19:20.578Z,959.87
2019-02-12T06:20:41.567Z,959.83
2019-02-12T06:21:20.551Z,959.88
2019-02-12T06:22:20.539Z,959.87
2019-02-12T06:23:20.532Z,959.87
2019-02-12T06:24:20.532Z,959.85
2019-02-12T06:25:20.512Z,959.87
2019-02-12T06:26:41.506Z,959.88
2019-02-12T06:27:20.491Z,959.87
2019-02-12T06:28:20.478Z,959.90
2019-02-12T06:29:20.481Z,959.95
2019-02-12T06:30:20.456Z,959.96
2019-02-12T06:31:20.439Z,959.99
2019-02-12T06:32:41.440Z,959.99
2019-02-12T06:33:20.429Z,959.99
2019-02-12T06:34:20.424Z,960.01
2019-02-12T06:35:20.400Z,959.99
2019-02-12T06:36:20.388Z,959.95
2019-02-12T06:37:20.370Z,959.94
2019-02-12T06:38:41.375Z,960.00
2019-02-12T06:39:21.340Z,960.00
2019-02-12T06:40:20.349Z,960.04
2019-02-12T06:41:20.332Z,960.05
2019-02-12T06:42:20.315Z,960.09
2019-02-12T06:43:20.314Z,960.09
2019-02-12T06:44:41.305Z,960.08
2019-02-12T06:45:20.285Z,960.11
2019-02-12T06:46:20.324Z,960.05
2019-02-12T06:47:20.278Z,960.03
2019-02-12T06:48:20.265Z,960.07
2019-02-12T06:49:20.241Z,960.08
2019-02-12T06:50:41.233Z,960.07
2019-02-12T06:51:20.214Z,960.11
2019-02-12T06:52:20.212Z,960.17
2019-02-12T06:53:20.199Z,960.18
2019-02-12T06:54:20.187Z,960.18
2019-02-12T06:55:20.175Z,960.15
2019-02-12T06:56:41.170Z,960.15
2019-02-12T06:57:20.159Z,960.21
2019-02-12T06:58:20.145Z,960.19
2019-02-12T06:59:20.131Z,960.22
2019-02-12T07:00:20.125Z,960.23
2019-02-12T07:01:20.115Z,960.22
2019-02-12T07:02:41.911Z,960.26
2019-02-12T07:03:20.094Z,960.23
2019-02-12T07:04:20.080Z,960.28
2019-02-12T07:05:20.076Z,960.30
2019-02-12T07:06:20.058Z,960.31
2019-02-12T07:07:20.048Z,960.33
2019-02-12T07:08:41.045Z,960.34
2019-02-12T07:09:20.027Z,960.35
2019-02-12T07:10:20.019Z,960.36
2019-02-12T07:11:20.007Z,960.38
2019-02-12T07:12:20.004Z,960.38
2019-02-12T07:13:19.991Z,960.41
2019-02-12T07:14:40.979Z,960.44
2019-02-12T07:15:19.972Z,960.47
2019-02-12T07:16:19.955Z,960.46
2019-02-12T07:17:19.947Z,960.51
2019-02-12T07:18:19.933Z,960.50
2019-02-12T07:19:19.925Z,960.52
2019-02-12T07:20:40.914Z,960.55
2019-02-12T07:21:19.962Z,960.54
2019-02-12T07:22:19.894Z,960.54
2019-02-12T07:23:21.451Z,960.55
2019-02-12T07:24:19.881Z,960.54
2019-02-12T07:25:19.863Z,960.50
2019-02-12T07:26:40.855Z,960.51
2019-02-12T07:27:19.843Z,960.49
2019-02-12T07:28:19.840Z,960.53
2019-02-12T07:29:21.829Z,960.50
2019-02-12T07:30:19.811Z,960.50
2019-02-12T07:31:19.797Z,960.50
2019-02-12T07:32:40.802Z,960.51
2019-02-12T07:33:19.789Z,960.49
2019-02-12T07:34:19.792Z,960.47
2019-02-12T07:35:19.763Z,960.47
2019-02-12T07:36:19.758Z,960.50
2019-02-12T07:37:19.740Z,960.44
2019-02-12T07:38:40.730Z,960.42
2019-02-12T07:39:19.726Z,960.45
2019-02-12T07:40:19.710Z,960.48
2019-02-12T07:41:20.472Z,960.52
2019-02-12T07:42:19.694Z,960.56
2019-02-12T07:43:19.684Z,960.61
2019-02-12T07:44:40.677Z,960.61
2019-02-12T07:45:19.663Z,960.63
2019-02-12T07:46:19.656Z,960.67
2019-02-12T07:47:19.641Z,960.72
2019-02-12T07:48:19.631Z,960.69
2019-02-12T07:49:19.640Z,960.74
2019-02-12T07:50:40.607Z,960.73
2019-02-12T07:51:19.605Z,960.75
2019-02-12T07:52:19.604Z,960.72
2019-02-12T07:53:19.588Z,960.72
2019-02-12T07:54:19.585Z,960.76
2019-02-12T07:55:19.571Z,960.80
2019-02-12T07:56:40.573Z,960.76
2019-02-12T07:57:21.665Z,960.76
2019-02-12T07:58:19.541Z,960.78
2019-02-12T07:59:19.536Z,960.81
2019-02-12T08:00:19.526Z,960.80
2019-02-12T08:01:19.501Z,960.82
2019-02-12T08:02:40.511Z,960.77
2019-02-12T08:03:19.502Z,960.81
2019-02-12T08:04:19.492Z,960.79
2019-02-12T08:05:19.479Z,960.83
2019-02-12T08:06:19.470Z,960.82
2019-02-12T08:07:19.456Z,960.82
2019-02-12T08:08:40.457Z,960.84
2019-02-12T08:09:19.441Z,960.85
2019-02-12T08:10:19.446Z,960.85
2019-02-12T08:11:19.423Z,960.88
2019-02-12T08:12:19.430Z,960.88
2019-02-12T08:13:19.412Z,960.93
2019-02-12T08:14:40.405Z,960.93
2019-02-12T08:15:19.394Z,960.95
2019-02-12T08:16:19.380Z,960.95
2019-02-12T08:17:19.381Z,960.98
2019-02-12T08:18:19.370Z,961.01
2019-02-12T08:19:19.351Z,961.00
2019-02-12T08:20:40.350Z,961.02
2019-02-12T08:21:19.341Z,961.01
2019-02-12T08:22:19.328Z,961.05
2019-02-12T08:23:19.315Z,961.05
2019-02-12T08:24:19.310Z,961.04
2019-02-12T08:25:19.306Z,961.06
2019-02-12T08:26:40.303Z,961.06
2019-02-12T08:27:19.293Z,961.07
2019-02-12T08:28:19.282Z,961.12
2019-02-12T08:29:19.271Z,961.09
2019-02-12T08:30:19.275Z,961.19
2019-02-12T08:31:19.254Z,961.18
2019-02-12T08:32:40.254Z,961.19
2019-02-12T08:33:19.236Z,961.16
2019-02-12T08:34:19.243Z,961.20
2019-02-12T08:35:19.232Z,961.22
2019-02-12T08:36:19.222Z,961.18
2019-02-12T08:37:19.210Z,961.26
2019-02-12T08:38:40.205Z,961.20
2019-02-12T08:39:19.191Z,961.22
2019-02-12T08:40:19.191Z,961.25
2019-02-12T08:41:19.171Z,961.24
2019-02-12T08:42:19.168Z,961.25
2019-02-12T08:43:19.164Z,961.23
2019-02-12T08:44:40.166Z,961.23
2019-02-12T08:45:19.196Z,961.22
2019-02-12T08:46:19.146Z,961.31
2019-02-12T08:47:19.143Z,961.28
2019-02-12T08:48:19.131Z,961.31
2019-02-12T08:49:19.142Z,961.31
2019-02-12T08:50:40.131Z,961.30
2019-02-12T08:51:19.113Z,961.34
2019-02-12T08:52:19.108Z,961.34
2019-02-12T08:53:19.103Z,961.35
2019-02-12T08:54:19.102Z,961.40
2019-02-12T08:55:19.087Z,961.39
2019-02-12T08:56:40.093Z,961.37
2019-02-12T08:57:19.079Z,961.38
2019-02-12T08:58:19.074Z,961.38
2019-02-12T08:59:19.077Z,961.44
2019-02-12T09:00:19.064Z,961.45
2019-02-12T09:01:19.061Z,961.44
2019-02-12T09:02:40.070Z,961.47
2019-02-12T09:03:19.058Z,961.46
2019-02-12T09:04:19.055Z,961.47
2019-02-12T09:05:19.042Z,961.50
2019-02-12T09:06:19.047Z,961.54
2019-02-12T09:07:19.035Z,961.57
2019-02-12T09:08:40.074Z,961.58
2019-02-12T09:09:19.275Z,961.59
2019-02-12T09:10:19.042Z,961.57
2019-02-12T09:11:19.013Z,961.58
2019-02-12T09:12:19.015Z,961.56
2019-02-12T09:13:19.008Z,961.59
2019-02-12T09:14:40.012Z,961.57
2019-02-12T09:15:19.000Z,961.55
2019-02-12T09:16:18.992Z,961.53
2019-02-12T09:17:18.998Z,961.53
2019-02-12T09:18:19.001Z,961.59
2019-02-12T09:19:18.983Z,961.59
2019-02-12T09:20:39.991Z,961.59
2019-02-12T09:21:18.985Z,961.62
2019-02-12T09:22:18.971Z,961.65
2019-02-12T09:23:18.972Z,961.61
2019-02-12T09:24:18.968Z,961.63
2019-02-12T09:25:18.970Z,961.64
2019-02-12T09:26:39.970Z,961.61
2019-02-12T09:27:18.967Z,961.70
2019-02-12T09:28:19.009Z,961.69
2019-02-12T09:29:18.955Z,961.72
2019-02-12T09:30:18.955Z,961.74
2019-02-12T09:31:18.944Z,961.75
2019-02-12T09:32:39.946Z,961.72
2019-02-12T09:33:18.937Z,961.68
2019-02-12T09:34:18.948Z,961.75
2019-02-12T09:35:18.931Z,961.73
2019-02-12T09:36:18.928Z,961.74
2019-02-12T09:37:18.927Z,961.80
2019-02-12T09:38:39.931Z,961.81
2019-02-12T09:39:18.915Z,961.79
2019-02-12T09:40:19.560Z,961.80
2019-02-12T09:41:18.918Z,961.84
2019-02-12T09:42:18.912Z,961.85
2019-02-12T09:43:18.906Z,961.89
2019-02-12T09:44:39.915Z,961.92
2019-02-12T09:45:18.912Z,961.93
2019-02-12T09:46:18.913Z,961.87
2019-02-12T09:47:18.888Z,961.89
2019-02-12T09:48:18.902Z,961.91
2019-02-12T09:49:18.881Z,961.91
2019-02-12T09:50:39.882Z,961.96
2019-02-12T09:51:18.873Z,961.93
2019-02-12T09:52:18.875Z,961.91
2019-02-12T09:53:18.864Z,961.91
2019-02-12T09:54:18.861Z,961.91
2019-02-12T09:55:18.868Z,961.87
2019-02-12T09:56:39.866Z,961.88
2019-02-12T09:57:18.854Z,961.94
2019-02-12T09:58:18.837Z,961.90
2019-02-12T09:59:18.853Z,961.91
2019-02-12T10:00:18.826Z,961.89
2019-02-12T10:01:18.833Z,961.89
2019-02-12T10:02:39.834Z,961.93
2019-02-12T10:03:18.826Z,961.93
2019-02-12T10:04:18.816Z,961.96
2019-02-12T10:05:18.810Z,961.95
2019-02-12T10:06:21.967Z,961.98
2019-02-12T10:07:18.798Z,961.95
2019-02-12T10:08:39.796Z,961.98
2019-02-12T10:09:18.786Z,962.03
2019-02-12T10:10:18.786Z,962.01
2019-02-12T10:11:18.783Z,962.04
2019-02-12T10:12:18.790Z,962.05
2019-02-12T10:13:18.765Z,962.02
2019-02-12T10:14:39.773Z,962.05
2019-02-12T10:15:18.769Z,962.10
2019-02-12T10:16:18.753Z,962.06
2019-02-12T10:17:18.756Z,962.10
2019-02-12T10:18:18.743Z,962.08
2019-02-12T10:19:18.740Z,962.07
2019-02-12T10:20:39.747Z,962.07
2019-02-12T10:21:18.732Z,962.10
2019-02-12T10:22:18.719Z,962.11
2019-02-12T10:23:18.724Z,962.13
2019-02-12T10:24:19.930Z,962.12
2019-02-12T10:25:18.726Z,962.15
2019-02-12T10:26:39.711Z,962.14
2019-02-12T10:27:18.706Z,962.13
2019-02-12T10:28:18.696Z,962.14
2019-02-12T10:29:18.713Z,962.13
2019-02-12T10:30:18.691Z,962.13
2019-02-12T10:31:18.687Z,962.13
2019-02-12T10:32:39.688Z,962.15
2019-02-12T10:33:18.673Z,962.17
2019-02-12T10:34:18.672Z,962.19
2019-02-12T10:35:18.667Z,962.13
2019-02-12T10:36:18.659Z,962.19
2019-02-12T10:37:18.655Z,962.13
2019-02-12T10:38:39.663Z,962.16
2019-02-12T10:39:18.648Z,962.16
2019-02-12T10:40:18.646Z,962.16
2019-02-12T10:41:18.631Z,962.14
2019-02-12T10:42:18.658Z,962.14
2019-02-12T10:43:18.630Z,962.15
2019-02-12T10:44:39.635Z,962.10
2019-02-12T10:45:18.622Z,962.13
2019-02-12T10:46:18.609Z,962.13
2019-02-12T10:47:18.621Z,962.13
2019-02-12T10:48:18.609Z,962.16
2019-02-12T10:49:18.614Z,962.12
2019-02-12T10:50:39.621Z,962.12
2019-02-12T10:51:18.597Z,962.16
2019-02-12T10:52:18.590Z,962.17
2019-02-12T10:53:18.588Z,962.15
2019-02-12T10:54:18.587Z,962.14
2019-02-12T10:55:18.584Z,962.15
2019-02-12T10:56:39.586Z,962.18
2019-02-12T10:57:18.579Z,962.23
2019-02-12T10:58:18.566Z,962.25
2019-02-12T10:59:18.571Z,962.17
2019-02-12T11:00:18.569Z,962.24
2019-02-12T11:01:18.567Z,962.24
2019-02-12T11:02:39.581Z,962.20
2019-02-12T11:03:18.569Z,962.15
2019-02-12T11:04:18.559Z,962.17
2019-02-12T11:05:18.571Z,962.22
2019-02-12T11:06:18.574Z,962.21
2019-02-12T11:07:18.560Z,962.22
2019-02-12T11:08:39.577Z,962.17
2019-02-12T11:09:18.558Z,962.16
2019-02-12T11:10:18.556Z,962.12
2019-02-12T11:11:18.554Z,962.13
2019-02-12T11:12:18.554Z,962.20
2019-02-12T11:13:18.550Z,962.19
2019-02-12T11:14:39.563Z,962.15
2019-02-12T11:15:18.555Z,962.16
2019-02-12T11:16:18.548Z,962.13
2019-02-12T11:17:18.552Z,962.13
2019-02-12T11:18:18.553Z,962.11
2019-02-12T11:19:18.537Z,962.08
2019-02-12T11:20:39.552Z,962.09
2019-02-12T11:21:18.540Z,962.12
2019-02-12T11:22:18.549Z,962.07
2019-02-12T11:23:18.531Z,962.04
2019-02-12T11:24:18.542Z,962.04
2019-02-12T11:25:18.537Z,962.10
2019-02-12T11:26:39.546Z,962.12
2019-02-12T11:27:18.524Z,962.12
2019-02-12T11:28:18.524Z,962.11
2019-02-12T11:29:18.535Z,962.12
2019-02-12T11:30:18.530Z,962.11
2019-02-12T11:31:18.514Z,962.04
2019-02-12T11:32:39.517Z,962.01
2019-02-12T11:33:18.507Z,962.01
2019-02-12T11:34:18.504Z,962.05
2019-02-12T11:35:18.507Z,962.01
2019-02-12T11:36:18.523Z,961.97
2019-02-12T11:37:18.498Z,962.00
2019-02-12T11:38:39.503Z,961.98
2019-02-12T11:39:19.665Z,962.00
2019-02-12T11:40:18.487Z,961.98
2019-02-12T11:41:18.479Z,961.99
2019-02-12T11:42:18.487Z,962.05
2019-02-12T11:43:18.482Z,962.01
2019-02-12T11:44:39.479Z,962.01
2019-02-12T11:45:18.478Z,962.03
2019-02-12T11:46:18.471Z,962.04
2019-02-12T11:47:18.470Z,961.99
2019-02-12T11:48:18.460Z,961.99
2019-02-12T11:49:18.457Z,962.00
2019-02-12T11:50:39.461Z,961.99
2019-02-12T11:51:18.451Z,961.95
2019-02-12T11:52:18.451Z,961.90
2019-02-12T11:53:18.444Z,961.87
2019-02-12T11:54:18.450Z,961.86
2019-02-12T11:55:18.447Z,961.86
2019-02-12T11:56:39.442Z,961.86
2019-02-12T11:57:18.434Z,961.86
2019-02-12T11:58:18.423Z,961.86
2019-02-12T11:59:18.423Z,961.86
2019-02-12T12:00:18.427Z,961.88
2019-02-12T12:01:18.414Z,961.92
2019-02-12T12:02:42.007Z,961.90
2019-02-12T12:03:18.410Z,961.92
2019-02-12T12:04:18.407Z,961.88
2019-02-12T12:05:18.404Z,961.87
2019-02-12T12:06:18.401Z,961.88
2019-02-12T12:07:18.392Z,961.90
2019-02-12T12:08:39.389Z,961.88
2019-02-12T12:09:18.386Z,961.87
2019-02-12T12:10:18.381Z,961.87
2019-02-12T12:11:18.375Z,961.88
2019-02-12T12:12:18.381Z,961.88
2019-02-12T12:13:18.359Z,961.83
2019-02-12T12:14:39.380Z,961.92
2019-02-12T12:15:18.358Z,961.89
2019-02-12T12:16:18.357Z,961.88
2019-02-12T12:17:18.348Z,961.89
2019-02-12T12:18:18.344Z,961.87
2019-02-12T12:19:18.333Z,961.84
2019-02-12T12:20:39.334Z,961.89
2019-02-12T12:21:18.332Z,961.87
2019-02-12T12:22:18.324Z,961.83
2019-02-12T12:23:18.319Z,961.80
2019-02-12T12:24:18.309Z,961.77
2019-02-12T12:25:18.308Z,961.81
2019-02-12T12:26:39.320Z,961.76
2019-02-12T12:27:18.291Z,961.82
2019-02-12T12:28:18.289Z,961.79